createdAt,value
2022-08-16T00:02:13.107Z,94839.06
2022-08-16T00:05:57.532Z,94839.59
2022-08-16T00:09:41.695Z,94843.06
2022-08-16T00:13:27.667Z,94843.34
2022-08-16T00:17:18.858Z,94843.09
2022-08-16T00:21:03.824Z,94840.97
2022-08-16T00:24:47.126Z,94846.31
2022-08-16T00:28:35.906Z,94844.69
2022-08-16T00:32:22.394Z,94842.03
2022-08-16T00:36:05.783Z,94843.63
2022-08-16T00:39:58.092Z,94842.00
2022-08-16T00:43:44.380Z,94842.00
2022-08-16T00:47:29.908Z,94836.66
2022-08-16T00:51:16.086Z,94836.16
2022-08-16T00:55:00.340Z,94832.44
2022-08-16T00:58:46.403Z,94842.59
2022-08-16T01:02:31.597Z,94835.66
2022-08-16T01:06:39.932Z,94839.38
2022-08-16T01:10:19.352Z,94828.22
2022-08-16T01:14:20.071Z,94827.66
2022-08-16T01:18:05.797Z,94826.84
2022-08-16T01:21:54.959Z,94832.97
2022-08-16T01:25:44.156Z,94821.78
2022-08-16T01:29:37.443Z,94824.47
2022-08-16T01:33:33.271Z,94833.00
2022-08-16T01:37:18.494Z,94835.66
2022-08-16T01:41:05.953Z,94829.00
2022-08-16T01:44:49.404Z,94829.78
2022-08-16T01:48:35.478Z,94833.00
2022-08-16T01:52:28.283Z,94829.28
2022-08-16T01:56:23.232Z,94831.94
2022-08-16T02:00:10.570Z,94818.09
2022-08-16T02:04:10.970Z,94816.47
2022-08-16T02:07:54.451Z,94822.34
2022-08-16T02:11:48.679Z,94816.47
2022-08-16T02:15:42.502Z,94805.00
2022-08-16T02:19:58.764Z,94803.13
2022-08-16T02:23:31.183Z,94807.38
2022-08-16T02:27:15.931Z,94799.38
2022-08-16T02:31:01.320Z,94796.72
2022-08-16T02:34:44.476Z,94806.28
2022-08-16T02:38:27.606Z,94797.78
2022-08-16T02:42:10.401Z,94798.28
2022-08-16T02:45:56.492Z,94805.47
2022-08-16T02:50:25.844Z,94800.16
2022-08-16T02:53:44.976Z,94804.69
2022-08-16T02:57:28.022Z,94803.59
2022-08-16T03:01:24.096Z,94803.06
2022-08-16T03:05:11.407Z,94807.84
2022-08-16T03:08:55.015Z,94800.91
2022-08-16T03:12:56.465Z,94812.59
2022-08-16T03:16:59.806Z,94813.66
2022-08-16T03:20:43.258Z,94812.31
2022-08-16T03:24:41.493Z,94814.16
2022-08-16T03:28:27.505Z,94825.31
2022-08-16T03:32:14.611Z,94825.84
2022-08-16T03:36:29.675Z,94826.59
2022-08-16T03:40:03.345Z,94823.34
2022-08-16T03:43:50.982Z,94821.47
2022-08-16T03:47:36.482Z,94821.97
2022-08-16T03:51:23.697Z,94821.69
2022-08-16T03:55:14.673Z,94830.72
2022-08-16T03:58:58.159Z,94827.78
2022-08-16T04:02:44.280Z,94824.59
2022-08-16T04:06:27.042Z,94827.22
2022-08-16T04:10:37.134Z,94822.16
2022-08-16T04:14:32.727Z,94821.41
2022-08-16T04:18:17.755Z,94818.78
2022-08-16T04:22:00.808Z,94821.72
2022-08-16T04:25:47.146Z,94816.13
2022-08-16T04:29:43.997Z,94819.31
2022-08-16T04:33:30.549Z,94821.47
2022-08-16T04:37:17.936Z,94827.09
2022-08-16T04:41:00.695Z,94836.63
2022-08-16T04:44:53.959Z,94838.47
2022-08-16T04:48:40.010Z,94841.41
2022-08-16T04:52:33.579Z,94839.56
2022-08-16T04:56:18.737Z,94838.56
2022-08-16T05:00:32.609Z,94841.75
2022-08-16T05:04:09.431Z,94845.97
2022-08-16T05:08:28.450Z,94843.28
2022-08-16T05:12:05.974Z,94846.44
2022-08-16T05:15:53.894Z,94844.84
2022-08-16T05:19:38.708Z,94840.59
2022-08-16T05:23:21.477Z,94841.97
2022-08-16T05:27:11.417Z,94851.34
2022-08-16T05:30:55.034Z,94846.03
2022-08-16T05:34:39.199Z,94852.44
2022-08-16T05:38:32.204Z,94867.31
2022-08-16T05:42:21.488Z,94867.34
2022-08-16T05:46:30.526Z,94864.75
2022-08-16T05:50:19.351Z,94859.72
2022-08-16T05:54:02.283Z,94863.19
2022-08-16T05:57:47.269Z,94863.75
2022-08-16T06:01:38.339Z,94859.00
2022-08-16T06:05:25.922Z,94856.34
2022-08-16T06:09:08.865Z,94861.72
2022-08-16T06:12:55.654Z,94862.84
2022-08-16T06:16:39.106Z,94871.09
2022-08-16T06:20:34.657Z,94859.91
2022-08-16T06:24:54.847Z,94859.13
2022-08-16T06:28:35.629Z,94858.56
2022-08-16T06:32:27.788Z,94868.16
2022-08-16T06:36:14.294Z,94867.59
2022-08-16T06:40:01.097Z,94865.47
2022-08-16T06:43:44.072Z,94866.53
2022-08-16T06:47:54.151Z,94877.19
2022-08-16T06:51:48.409Z,94878.25
2022-08-16T06:55:34.842Z,94886.47
2022-08-16T06:59:21.225Z,94883.22
2022-08-16T07:03:26.856Z,94881.88
2022-08-16T07:07:11.276Z,94871.66
2022-08-16T07:10:59.717Z,94884.72
2022-08-16T07:14:44.633Z,94874.78
2022-08-16T07:18:28.195Z,94878.50
2022-08-16T07:22:37.472Z,94870.94
2022-08-16T07:26:25.446Z,94882.13
2022-08-16T07:30:26.626Z,94867.63
2022-08-16T07:34:15.587Z,94861.41
2022-08-16T07:37:58.927Z,94867.94
2022-08-16T07:41:44.337Z,94864.09
2022-08-16T07:45:27.134Z,94861.09
2022-08-16T07:49:16.697Z,94870.34
2022-08-16T07:53:02.080Z,94863.31
2022-08-16T07:56:46.287Z,94854.03
2022-08-16T08:00:29.374Z,94864.13
2022-08-16T08:04:14.027Z,94867.75
2022-08-16T08:07:57.747Z,94871.53
2022-08-16T08:11:40.560Z,94869.81
2022-08-16T08:15:53.166Z,94863.81
2022-08-16T08:19:36.262Z,94874.97
2022-08-16T08:23:24.104Z,94872.75
2022-08-16T08:27:09.134Z,94866.00
2022-08-16T08:31:01.596Z,94875.84
2022-08-16T08:34:46.415Z,94877.81
2022-08-16T08:38:45.290Z,94881.44
2022-08-16T08:42:29.037Z,94874.09
2022-08-16T08:46:17.790Z,94867.69
2022-08-16T08:50:01.916Z,94868.94
2022-08-16T08:53:44.655Z,94872.94
2022-08-16T08:57:27.457Z,94873.66
2022-08-16T09:01:13.104Z,94870.97
2022-08-16T09:05:16.307Z,94879.09
2022-08-16T09:08:59.889Z,94883.06
2022-08-16T09:12:42.704Z,94871.16
2022-08-16T09:17:01.110Z,94867.69
2022-08-16T09:20:35.910Z,94868.47
2022-08-16T09:24:52.158Z,94871.06
2022-08-16T09:29:13.714Z,94867.47
2022-08-16T09:32:40.769Z,94873.06
2022-08-16T09:36:32.883Z,94867.19
2022-08-16T09:40:32.507Z,94852.00
2022-08-16T09:45:11.952Z,94863.13
2022-08-16T09:48:44.110Z,94866.00
2022-08-16T09:52:28.694Z,94852.44
2022-08-16T09:56:17.726Z,94849.84
2022-08-16T10:00:01.809Z,94851.75
2022-08-16T10:04:01.711Z,94852.25
2022-08-16T10:07:47.278Z,94845.78
2022-08-16T10:11:50.367Z,94856.00
2022-08-16T10:15:34.103Z,94847.47
2022-08-16T10:19:19.233Z,94849.38
2022-08-16T10:23:07.363Z,94841.00
2022-08-16T10:27:19.335Z,94838.72
2022-08-16T10:30:56.533Z,94844.88
2022-08-16T10:34:43.216Z,94842.91
2022-08-16T10:38:28.392Z,94844.47
2022-08-16T10:42:13.123Z,94837.44
2022-08-16T10:46:00.468Z,94843.91
2022-08-16T10:49:45.300Z,94838.13
2022-08-16T10:53:32.906Z,94847.88
2022-08-16T10:57:16.921Z,94840.94
2022-08-16T11:01:00.559Z,94840.72
2022-08-16T11:08:47.546Z,94850.88
2022-08-16T11:12:30.434Z,94856.91
2022-08-16T11:24:41.852Z,94863.91
2022-08-16T11:32:33.409Z,94853.59
2022-08-16T11:36:27.378Z,94853.56
2022-08-16T11:40:13.833Z,94837.41
2022-08-16T11:43:57.429Z,94826.41
2022-08-16T11:47:40.723Z,94828.19
2022-08-16T11:51:23.521Z,94824.81
2022-08-16T11:55:08.184Z,94822.19
2022-08-16T11:58:56.985Z,94819.81
2022-08-16T12:02:40.230Z,94816.47
2022-08-16T12:06:30.534Z,94821.50
2022-08-16T12:10:16.001Z,94823.69
2022-08-16T12:14:00.340Z,94821.50
2022-08-16T12:17:44.110Z,94810.13
2022-08-16T12:21:26.960Z,94807.78
2022-08-16T12:25:31.382Z,94806.72
2022-08-16T12:29:16.379Z,94806.78
2022-08-16T12:33:00.244Z,94815.06
2022-08-16T12:36:46.427Z,94805.50
2022-08-16T12:40:34.631Z,94804.50
2022-08-16T12:44:19.984Z,94808.03
2022-08-16T12:48:34.484Z,94808.34
2022-08-16T12:52:33.244Z,94809.16
2022-08-16T12:56:17.177Z,94808.03
2022-08-16T13:00:03.177Z,94814.28
2022-08-16T13:03:46.194Z,94803.84
2022-08-16T13:07:29.291Z,94807.38
2022-08-16T13:11:25.936Z,94794.59
2022-08-16T13:15:12.805Z,94800.06
2022-08-16T13:18:55.590Z,94792.47
2022-08-16T13:22:41.277Z,94783.50
2022-08-16T13:26:26.292Z,94788.44
2022-08-16T13:30:35.628Z,94795.53
2022-08-16T13:34:18.425Z,94794.34
2022-08-16T13:38:02.014Z,94781.97
2022-08-16T13:41:44.940Z,94782.09
2022-08-16T13:45:44.936Z,94782.16
2022-08-16T13:49:28.064Z,94774.53
2022-08-16T13:53:12.545Z,94779.03
2022-08-16T13:56:58.101Z,94770.53
2022-08-16T14:00:42.275Z,94764.22
2022-08-16T14:04:27.178Z,94767.13
2022-08-16T14:08:10.796Z,94760.09
2022-08-16T14:11:54.373Z,94767.63
2022-08-16T14:15:37.704Z,94771.22
2022-08-16T14:19:26.497Z,94764.75
2022-08-16T14:23:11.138Z,94768.16
2022-08-16T14:26:54.682Z,94769.81
2022-08-16T14:30:40.437Z,94767.34
2022-08-16T14:34:25.662Z,94771.22
2022-08-16T14:38:10.078Z,94766.81
2022-08-16T14:41:56.844Z,94765.97
2022-08-16T14:45:39.812Z,94751.50
2022-08-16T14:49:22.581Z,94758.06
2022-08-16T14:53:08.690Z,94757.94
2022-08-16T14:56:55.012Z,94754.88
2022-08-16T15:00:38.121Z,94754.19
2022-08-16T15:04:32.550Z,94756.72
2022-08-16T15:08:36.175Z,94751.94
2022-08-16T15:12:27.060Z,94746.28
2022-08-16T15:16:13.522Z,94749.66
2022-08-16T15:19:57.060Z,94746.34
2022-08-16T15:23:41.351Z,94752.09
2022-08-16T15:27:26.527Z,94742.00
2022-08-16T15:31:19.211Z,94750.84
2022-08-16T15:35:03.609Z,94757.25
2022-08-16T15:38:57.030Z,94767.97
2022-08-16T15:42:54.160Z,94756.56
2022-08-16T15:46:54.768Z,94756.81
2022-08-16T15:50:44.597Z,94753.16
2022-08-16T15:54:30.875Z,94755.41
2022-08-16T15:58:35.412Z,94749.94
2022-08-16T16:02:27.375Z,94751.44
2022-08-16T16:06:16.506Z,94750.75
2022-08-16T16:10:00.051Z,94743.38
2022-08-16T16:13:44.793Z,94747.78
2022-08-16T16:17:29.348Z,94741.38
2022-08-16T16:21:13.004Z,94743.59
2022-08-16T16:25:03.485Z,94745.41
2022-08-16T16:29:07.532Z,94738.66
2022-08-16T16:32:51.759Z,94741.75
2022-08-16T16:36:35.124Z,94740.75
2022-08-16T16:40:28.900Z,94725.81
2022-08-16T16:44:18.128Z,94725.09
2022-08-16T16:48:14.705Z,94726.31
2022-08-16T16:52:06.891Z,94725.63
2022-08-16T16:55:52.559Z,94722.31
2022-08-16T16:59:36.757Z,94727.66
2022-08-16T17:03:19.579Z,94725.31
2022-08-16T17:07:04.199Z,94735.22
2022-08-16T17:10:54.009Z,94746.75
2022-08-16T17:14:42.779Z,94748.13
2022-08-16T17:19:16.578Z,94750.44
2022-08-16T17:22:32.760Z,94748.97
2022-08-16T17:26:16.019Z,94747.53
2022-08-16T17:30:00.975Z,94749.03
2022-08-16T17:33:54.471Z,94749.91
2022-08-16T17:37:54.075Z,94762.19
2022-08-16T17:41:38.318Z,94763.84
2022-08-16T17:45:26.112Z,94767.63
2022-08-16T17:49:08.933Z,94768.97
2022-08-16T17:52:53.023Z,94770.44
2022-08-16T17:56:35.856Z,94768.63
2022-08-16T18:00:20.574Z,94775.56
2022-08-16T18:04:09.643Z,94776.91
2022-08-16T18:07:53.293Z,94776.41
2022-08-16T18:11:40.962Z,94775.94
2022-08-16T18:15:25.363Z,94774.03
2022-08-16T18:19:09.823Z,94771.72
2022-08-16T18:22:52.665Z,94771.97
2022-08-16T18:26:35.644Z,94770.25
2022-08-16T18:30:18.430Z,94781.88
2022-08-16T18:34:02.725Z,94780.47
2022-08-16T18:37:47.205Z,94791.22
2022-08-16T18:41:30.495Z,94783.56
2022-08-16T18:45:13.600Z,94787.53
2022-08-16T18:48:58.666Z,94797.00
2022-08-16T18:52:51.324Z,94805.69
2022-08-16T18:56:55.229Z,94802.16
2022-08-16T19:00:50.551Z,94808.63
2022-08-16T19:04:56.349Z,94811.25
2022-08-16T19:08:43.989Z,94810.56
2022-08-16T19:12:38.360Z,94813.81
2022-08-16T19:16:25.008Z,94811.69
2022-08-16T19:20:10.999Z,94828.28
2022-08-16T19:23:56.400Z,94824.94
2022-08-16T19:27:41.355Z,94825.53
2022-08-16T19:31:26.390Z,94829.47
2022-08-16T19:35:10.672Z,94831.19
2022-08-16T19:38:54.891Z,94831.59
2022-08-16T19:42:39.566Z,94826.63
2022-08-16T19:46:22.494Z,94836.00
2022-08-16T19:50:07.910Z,94841.22
2022-08-16T19:53:50.737Z,94836.75
2022-08-16T19:57:35.989Z,94838.94
2022-08-16T20:01:18.820Z,94846.50
2022-08-16T20:05:06.264Z,94841.25
2022-08-16T20:08:49.080Z,94840.28
2022-08-16T20:12:31.878Z,94841.59
2022-08-16T20:16:16.368Z,94849.28
2022-08-16T20:19:59.242Z,94846.09
2022-08-16T20:23:42.268Z,94851.59
2022-08-16T20:27:25.010Z,94846.88
2022-08-16T20:31:07.831Z,94852.25
2022-08-16T20:34:57.391Z,94856.63
2022-08-16T20:38:42.586Z,94855.34
2022-08-16T20:42:27.524Z,94870.75
2022-08-16T20:46:10.314Z,94870.97
2022-08-16T20:49:54.758Z,94868.19
2022-08-16T20:53:37.837Z,94869.09
2022-08-16T20:57:20.772Z,94872.56
2022-08-16T21:01:04.078Z,94873.34
2022-08-16T21:04:46.899Z,94870.28
2022-08-16T21:08:52.681Z,94865.78
2022-08-16T21:12:37.753Z,94865.09
2022-08-16T21:16:20.937Z,94861.97
2022-08-16T21:20:08.476Z,94859.97
2022-08-16T21:23:53.031Z,94868.09
2022-08-16T21:27:35.759Z,94863.31
2022-08-16T21:31:39.482Z,94869.28
2022-08-16T21:35:22.223Z,94866.81
2022-08-16T21:39:07.377Z,94867.09
2022-08-16T21:42:50.246Z,94870.97
2022-08-16T21:46:33.943Z,94875.72
2022-08-16T21:50:16.903Z,94880.19
2022-08-16T21:54:02.161Z,94877.81
2022-08-16T21:57:46.367Z,94872.59
2022-08-16T22:01:29.509Z,94870.63
2022-08-16T22:05:12.422Z,94872.66
2022-08-16T22:08:55.194Z,94866.50
2022-08-16T22:12:40.079Z,94870.19
2022-08-16T22:16:24.630Z,94868.38
2022-08-16T22:20:10.220Z,94875.38
2022-08-16T22:23:57.714Z,94878.91
2022-08-16T22:27:42.289Z,94875.84
2022-08-16T22:31:26.817Z,94870.16
2022-08-16T22:35:12.519Z,94864.34
2022-08-16T22:38:58.695Z,94869.22
2022-08-16T22:42:49.794Z,94868.72
2022-08-16T22:46:34.859Z,94877.88
2022-08-16T22:50:17.675Z,94880.09
2022-08-16T22:54:00.684Z,94875.84
2022-08-16T22:58:03.487Z,94880.72
2022-08-16T23:01:50.219Z,94871.13
2022-08-16T23:05:35.741Z,94869.88
2022-08-16T23:09:18.733Z,94874.22
2022-08-16T23:13:04.352Z,94864.94
2022-08-16T23:16:48.513Z,94860.97
2022-08-16T23:20:33.101Z,94869.03
2022-08-16T23:24:19.322Z,94857.53
2022-08-16T23:28:03.416Z,94853.28
2022-08-16T23:31:46.222Z,94861.28
2022-08-16T23:35:45.042Z,94854.91
2022-08-16T23:39:29.449Z,94868.28
2022-08-16T23:43:14.422Z,94847.97
2022-08-16T23:46:57.225Z,94845.34
2022-08-16T23:50:43.463Z,94850.13
2022-08-16T23:54:26.266Z,94849.56
2022-08-16T23:58:09.288Z,94847.41
